Wilsonville, Illinois
Current Conditions -  °F | °C
As of 10:35 AM on Monday 26 Jan 2015 (Local Time) from K3LF Reporting Station
Overcast Overcast  
Wind Chill: 23°   Ceiling: 2300
Heat Index: 28°   Visibility: 10mi
Dew Point: 23°   Wind: 5mph
Humidity: 81%   Direction: 230°SW
Pressure: 30"   Gusts: NA
Location:  39.07°N, 89.86°W
Report Text: K3LF 261635Z AUTO 23004KT 10SM OVC023 M02/M05 A3000 RMK AO2 T10231052
Loading
Personal Weather Stations






























Interactive Weather Map New forecast layout! Learn more

10-Day Weather Forecast

Advertisements
Track Severe Weather on mobile